sensor_id;sensor_type;location;lat;lon;timestamp;pressure;altitude;pressure_sealevel;temperature;humidity
18813;BME280;9534;51.140;6.296;2023-04-24T00:00:44;99129.63;;;10.72;100.00
18813;BME280;9534;51.140;6.296;2023-04-24T00:04:47;99119.50;;;10.56;100.00
18813;BME280;9534;51.140;6.296;2023-04-24T00:08:50;99109.28;;;10.35;100.00
18813;BME280;9534;51.140;6.296;2023-04-24T00:12:55;99131.38;;;10.17;100.00
18813;BME280;9534;51.140;6.296;2023-04-24T00:16:58;99147.66;;;10.12;100.00
18813;BME280;9534;51.140;6.296;2023-04-24T00:21:01;99143.97;;;10.18;100.00
18813;BME280;9534;51.140;6.296;2023-04-24T00:25:04;99140.38;;;10.17;100.00
18813;BME280;9534;51.140;6.296;2023-04-24T00:29:09;99135.44;;;10.03;100.00
18813;BME280;9534;51.140;6.296;2023-04-24T00:33:12;99143.66;;;9.91;100.00
18813;BME280;9534;51.140;6.296;2023-04-24T00:37:15;99142.25;;;9.89;100.00
18813;BME280;9534;51.140;6.296;2023-04-24T00:41:18;99148.78;;;9.88;100.00
18813;BME280;9534;51.140;6.296;2023-04-24T00:45:23;99142.72;;;9.86;100.00
18813;BME280;9534;51.140;6.296;2023-04-24T00:49:26;99158.53;;;9.84;100.00
18813;BME280;9534;51.140;6.296;2023-04-24T00:53:29;99160.81;;;9.76;100.00
18813;BME280;9534;51.140;6.296;2023-04-24T00:57:32;99157.28;;;9.64;100.00
18813;BME280;9534;51.140;6.296;2023-04-24T01:01:37;99158.44;;;9.56;100.00
18813;BME280;9534;51.140;6.296;2023-04-24T01:05:43;99145.88;;;9.55;100.00
18813;BME280;9534;51.140;6.296;2023-04-24T01:09:47;99148.47;;;9.50;100.00
18813;BME280;9534;51.140;6.296;2023-04-24T01:13:52;99144.69;;;9.51;100.00
18813;BME280;9534;51.140;6.296;2023-04-24T01:17:57;99140.28;;;9.50;100.00
18813;BME280;9534;51.140;6.296;2023-04-24T01:22:00;99151.22;;;9.50;100.00
18813;BME280;9534;51.140;6.296;2023-04-24T01:26:06;99144.09;;;9.49;100.00
18813;BME280;9534;51.140;6.296;2023-04-24T01:30:09;99144.56;;;9.46;100.00
18813;BME280;9534;51.140;6.296;2023-04-24T01:34:12;99144.56;;;9.46;100.00
18813;BME280;9534;51.140;6.296;2023-04-24T01:38:16;99141.75;;;9.41;100.00
18813;BME280;9534;51.140;6.296;2023-04-24T01:42:20;99148.88;;;9.42;100.00
18813;BME280;9534;51.140;6.296;2023-04-24T01:46:24;99146.75;;;9.44;100.00
18813;BME280;9534;51.140;6.296;2023-04-24T01:50:27;99147.81;;;9.43;100.00
18813;BME280;9534;51.140;6.296;2023-04-24T01:54:30;99140.78;;;9.47;100.00
18813;BME280;9534;51.140;6.296;2023-04-24T01:58:34;99128.19;;;9.46;100.00
18813;BME280;9534;51.140;6.296;2023-04-24T02:02:37;99140.78;;;9.47;100.00
18813;BME280;9534;51.140;6.296;2023-04-24T02:06:41;99129.63;;;9.49;100.00
18813;BME280;9534;51.140;6.296;2023-04-24T02:10:44;99143.50;;;9.47;100.00
18813;BME280;9534;51.140;6.296;2023-04-24T02:14:49;99141.13;;;9.51;100.00
18813;BME280;9534;51.140;6.296;2023-04-24T02:18:52;99129.97;;;9.52;100.00
18813;BME280;9534;51.140;6.296;2023-04-24T02:22:56;99131.03;;;9.51;100.00
18813;BME280;9534;51.140;6.296;2023-04-24T02:26:59;99139.34;;;9.56;100.00
18813;BME280;9534;51.140;6.296;2023-04-24T02:31:03;99126.28;;;9.58;100.00
18813;BME280;9534;51.140;6.296;2023-04-24T02:35:07;99130.06;;;9.57;100.00
18813;BME280;9534;51.140;6.296;2023-04-24T02:39:10;99130.06;;;9.57;100.00
18813;BME280;9534;51.140;6.296;2023-04-24T02:43:14;99145.66;;;9.57;100.00
18813;BME280;9534;51.140;6.296;2023-04-24T02:47:18;99118.66;;;9.60;100.00
18813;BME280;9534;51.140;6.296;2023-04-24T02:51:23;99115.81;;;9.55;100.00
18813;BME280;9534;51.140;6.296;2023-04-24T02:55:26;99126.75;;;9.55;100.00
18813;BME280;9534;51.140;6.296;2023-04-24T02:59:29;99139.13;;;9.58;100.00
18813;BME280;9534;51.140;6.296;2023-04-24T03:03:34;99136.00;;;9.54;100.00
18813;BME280;9534;51.140;6.296;2023-04-24T03:07:38;99129.84;;;9.59;100.00
18813;BME280;9534;51.140;6.296;2023-04-24T03:11:41;99150.25;;;9.56;100.00
18813;BME280;9534;51.140;6.296;2023-04-24T03:15:44;99148.97;;;9.59;100.00
18813;BME280;9534;51.140;6.296;2023-04-24T03:19:50;99153.59;;;9.58;100.00
18813;BME280;9534;51.140;6.296;2023-04-24T03:23:53;99154.06;;;9.55;100.00
18813;BME280;9534;51.140;6.296;2023-04-24T03:27:56;99159.03;;;9.58;100.00
18813;BME280;9534;51.140;6.296;2023-04-24T03:32:19;99160.13;;;9.57;100.00
18813;BME280;9534;51.140;6.296;2023-04-24T03:36:24;99164.97;;;9.55;100.00
18813;BME280;9534;51.140;6.296;2023-04-24T03:40:29;99164.16;;;9.55;100.00
18813;BME280;9534;51.140;6.296;2023-04-24T03:44:33;99160.00;;;9.52;100.00
18813;BME280;9534;51.140;6.296;2023-04-24T03:48:36;99152.28;;;9.49;100.00
18813;BME280;9534;51.140;6.296;2023-04-24T03:52:41;99157.75;;;9.49;100.00
18813;BME280;9534;51.140;6.296;2023-04-24T03:56:50;99151.59;;;9.42;100.00
18813;BME280;9534;51.140;6.296;2023-04-24T04:00:54;99153.75;;;9.40;100.00
18813;BME280;9534;51.140;6.296;2023-04-24T04:05:19;99157.06;;;9.42;100.00
18813;BME280;9534;51.140;6.296;2023-04-24T04:09:23;99164.06;;;9.38;100.00
18813;BME280;9534;51.140;6.296;2023-04-24T04:13:27;99164.78;;;9.22;100.00
18813;BME280;9534;51.140;6.296;2023-04-24T04:17:30;99164.06;;;9.15;100.00
18813;BME280;9534;51.140;6.296;2023-04-24T04:21:35;99175.94;;;9.09;100.00
18813;BME280;9534;51.140;6.296;2023-04-24T04:25:53;99171.75;;;9.07;100.00
18813;BME280;9534;51.140;6.296;2023-04-24T04:30:06;99194.91;;;9.04;100.00
18813;BME280;9534;51.140;6.296;2023-04-24T04:34:18;99184.72;;;9.11;100.00
18813;BME280;9534;51.140;6.296;2023-04-24T04:38:21;99186.25;;;9.07;100.00
18813;BME280;9534;51.140;6.296;2023-04-24T04:42:43;99196.44;;;8.89;100.00
18813;BME280;9534;51.140;6.296;2023-04-24T04:46:48;99208.59;;;8.75;100.00
18813;BME280;9534;51.140;6.296;2023-04-24T04:51:06;99205.22;;;8.61;100.00
18813;BME280;9534;51.140;6.296;2023-04-24T04:55:10;99222.63;;;8.49;100.00
18813;BME280;9534;51.140;6.296;2023-04-24T04:59:40;99227.72;;;8.46;100.00
18813;BME280;9534;51.140;6.296;2023-04-24T05:03:50;99235.28;;;8.44;100.00
18813;BME280;9534;51.140;6.296;2023-04-24T05:07:53;99229.22;;;8.42;100.00
18813;BME280;9534;51.140;6.296;2023-04-24T05:11:58;99236.69;;;8.46;100.00
18813;BME280;9534;51.140;6.296;2023-04-24T05:16:05;99234.97;;;8.52;100.00
18813;BME280;9534;51.140;6.296;2023-04-24T05:20:09;99228.06;;;8.49;100.00
18813;BME280;9534;51.140;6.296;2023-04-24T05:24:13;99231.03;;;8.48;100.00
18813;BME280;9534;51.140;6.296;2023-04-24T05:28:28;99230.94;;;8.54;100.00
18813;BME280;9534;51.140;6.296;2023-04-24T05:32:40;99232.50;;;8.61;100.00
18813;BME280;9534;51.140;6.296;2023-04-24T05:36:44;99231.91;;;8.60;100.00
18813;BME280;9534;51.140;6.296;2023-04-24T05:40:47;99240.56;;;8.57;100.00
18813;BME280;9534;51.140;6.296;2023-04-24T05:44:50;99242.69;;;8.55;100.00
18813;BME280;9534;51.140;6.296;2023-04-24T05:48:56;99238.28;;;8.54;100.00
18813;BME280;9534;51.140;6.296;2023-04-24T05:52:59;99251.78;;;8.49;100.00
18813;BME280;9534;51.140;6.296;2023-04-24T05:57:07;99260.88;;;8.43;100.00
18813;BME280;9534;51.140;6.296;2023-04-24T06:01:23;99266.03;;;8.33;100.00
18813;BME280;9534;51.140;6.296;2023-04-24T06:05:38;99274.06;;;8.28;100.00
18813;BME280;9534;51.140;6.296;2023-04-24T06:09:41;99284.78;;;8.23;100.00
18813;BME280;9534;51.140;6.296;2023-04-24T06:13:45;99284.19;;;8.21;100.00
18813;BME280;9534;51.140;6.296;2023-04-24T06:18:08;99297.19;;;8.19;100.00
18813;BME280;9534;51.140;6.296;2023-04-24T06:22:14;99312.03;;;8.23;100.00
18813;BME280;9534;51.140;6.296;2023-04-24T06:26:17;99306.81;;;8.21;100.00
18813;BME280;9534;51.140;6.296;2023-04-24T06:30:20;99318.72;;;8.27;100.00
18813;BME280;9534;51.140;6.296;2023-04-24T06:34:23;99315.22;;;8.20;100.00
18813;BME280;9534;51.140;6.296;2023-04-24T06:38:27;99324.22;;;8.20;100.00
18813;BME280;9534;51.140;6.296;2023-04-24T06:42:31;99318.84;;;8.14;100.00
18813;BME280;9534;51.140;6.296;2023-04-24T06:46:34;99312.41;;;8.08;100.00
18813;BME280;9534;51.140;6.296;2023-04-24T06:50:38;99321.72;;;8.01;100.00
18813;BME280;9534;51.140;6.296;2023-04-24T06:54:42;99324.44;;;8.01;100.00
18813;BME280;9534;51.140;6.296;2023-04-24T06:58:45;99337.88;;;7.96;100.00
18813;BME280;9534;51.140;6.296;2023-04-24T07:02:48;99339.84;;;7.71;100.00
18813;BME280;9534;51.140;6.296;2023-04-24T07:06:51;99364.88;;;7.55;100.00
18813;BME280;9534;51.140;6.296;2023-04-24T07:10:58;99355.88;;;7.30;100.00
18813;BME280;9534;51.140;6.296;2023-04-24T07:15:03;99352.16;;;7.25;100.00
18813;BME280;9534;51.140;6.296;2023-04-24T07:19:06;99351.72;;;7.28;100.00
18813;BME280;9534;51.140;6.296;2023-04-24T07:23:09;99342.53;;;7.22;100.00
18813;BME280;9534;51.140;6.296;2023-04-24T07:27:14;99342.09;;;7.25;100.00
18813;BME280;9534;51.140;6.296;2023-04-24T07:31:17;99335.59;;;7.26;100.00
18813;BME280;9534;51.140;6.296;2023-04-24T07:35:20;99334.09;;;7.30;100.00
18813;BME280;9534;51.140;6.296;2023-04-24T07:39:23;99319.16;;;7.39;100.00
18813;BME280;9534;51.140;6.296;2023-04-24T07:43:27;99341.44;;;7.54;100.00
18813;BME280;9534;51.140;6.296;2023-04-24T07:47:30;99342.22;;;7.61;100.00
18813;BME280;9534;51.140;6.296;2023-04-24T07:51:33;99356.81;;;7.66;100.00
18813;BME280;9534;51.140;6.296;2023-04-24T07:55:39;99376.50;;;7.68;100.00
18813;BME280;9534;51.140;6.296;2023-04-24T07:59:44;99411.06;;;7.68;100.00
18813;BME280;9534;51.140;6.296;2023-04-24T08:03:47;99410.44;;;7.66;100.00
18813;BME280;9534;51.140;6.296;2023-04-24T08:07:50;99425.94;;;7.65;100.00
18813;BME280;9534;51.140;6.296;2023-04-24T08:11:54;99427.66;;;7.60;100.00
18813;BME280;9534;51.140;6.296;2023-04-24T08:15:58;99435.22;;;7.58;100.00
18813;BME280;9534;51.140;6.296;2023-04-24T08:20:01;99456.59;;;7.54;100.00
18813;BME280;9534;51.140;6.296;2023-04-24T08:24:06;99471.66;;;7.57;100.00
18813;BME280;9534;51.140;6.296;2023-04-24T08:28:10;99486.72;;;7.59;100.00
18813;BME280;9534;51.140;6.296;2023-04-24T08:32:16;99517.50;;;7.60;100.00
18813;BME280;9534;51.140;6.296;2023-04-24T08:36:19;99503.47;;;7.63;100.00
18813;BME280;9534;51.140;6.296;2023-04-24T08:40:26;99512.84;;;7.67;100.00
18813;BME280;9534;51.140;6.296;2023-04-24T08:44:30;99526.47;;;7.67;100.00
18813;BME280;9534;51.140;6.296;2023-04-24T08:48:36;99552.81;;;7.73;100.00
18813;BME280;9534;51.140;6.296;2023-04-24T08:52:39;99569.53;;;7.76;100.00
18813;BME280;9534;51.140;6.296;2023-04-24T08:56:44;99573.94;;;7.77;100.00
18813;BME280;9534;51.140;6.296;2023-04-24T09:00:47;99573.28;;;7.82;100.00
18813;BME280;9534;51.140;6.296;2023-04-24T09:04:52;99598.19;;;7.85;100.00
18813;BME280;9534;51.140;6.296;2023-04-24T09:08:55;99595.44;;;7.92;100.00
18813;BME280;9534;51.140;6.296;2023-04-24T09:12:58;99608.00;;;7.93;100.00
18813;BME280;9534;51.140;6.296;2023-04-24T09:17:03;99608.78;;;8.00;100.00
18813;BME280;9534;51.140;6.296;2023-04-24T09:21:08;99606.69;;;8.02;100.00
18813;BME280;9534;51.140;6.296;2023-04-24T09:25:12;99625.91;;;8.13;100.00
18813;BME280;9534;51.140;6.296;2023-04-24T09:29:15;99626.28;;;8.17;100.00
18813;BME280;9534;51.140;6.296;2023-04-24T09:33:18;99630.44;;;8.26;100.00
18813;BME280;9534;51.140;6.296;2023-04-24T09:37:28;99632.22;;;8.45;100.00
18813;BME280;9534;51.140;6.296;2023-04-24T09:41:32;99635.59;;;8.64;100.00
18813;BME280;9534;51.140;6.296;2023-04-24T09:45:35;99647.28;;;8.71;100.00
18813;BME280;9534;51.140;6.296;2023-04-24T09:49:38;99652.59;;;8.91;100.00
18813;BME280;9534;51.140;6.296;2023-04-24T09:53:46;99651.56;;;9.10;100.00
18813;BME280;9534;51.140;6.296;2023-04-24T09:57:57;99636.56;;;9.19;100.00
18813;BME280;9534;51.140;6.296;2023-04-24T10:02:02;99646.06;;;9.16;100.00
18813;BME280;9534;51.140;6.296;2023-04-24T10:06:06;99660.47;;;9.23;100.00
18813;BME280;9534;51.140;6.296;2023-04-24T10:10:12;99680.25;;;8.94;100.00
18813;BME280;9534;51.140;6.296;2023-04-24T10:14:16;99670.00;;;8.65;100.00
18813;BME280;9534;51.140;6.296;2023-04-24T10:18:19;99659.16;;;8.59;100.00
18813;BME280;9534;51.140;6.296;2023-04-24T10:22:24;99685.75;;;8.63;100.00
18813;BME280;9534;51.140;6.296;2023-04-24T10:26:28;99691.72;;;8.78;100.00
18813;BME280;9534;51.140;6.296;2023-04-24T10:30:32;99705.75;;;8.58;100.00
18813;BME280;9534;51.140;6.296;2023-04-24T10:34:37;99688.00;;;8.73;100.00
18813;BME280;9534;51.140;6.296;2023-04-24T10:38:41;99684.50;;;8.90;100.00
18813;BME280;9534;51.140;6.296;2023-04-24T10:42:51;99688.50;;;9.12;100.00
18813;BME280;9534;51.140;6.296;2023-04-24T10:46:56;99688.09;;;9.87;100.00
18813;BME280;9534;51.140;6.296;2023-04-24T10:50:59;99698.00;;;10.65;100.00
18813;BME280;9534;51.140;6.296;2023-04-24T10:55:03;99681.59;;;10.76;100.00
18813;BME280;9534;51.140;6.296;2023-04-24T10:59:08;99675.63;;;10.56;100.00
18813;BME280;9534;51.140;6.296;2023-04-24T11:03:22;99661.16;;;10.90;100.00
18813;BME280;9534;51.140;6.296;2023-04-24T11:07:26;99662.84;;;11.48;100.00
18813;BME280;9534;51.140;6.296;2023-04-24T11:11:29;99672.94;;;10.79;100.00
18813;BME280;9534;51.140;6.296;2023-04-24T11:15:34;99665.75;;;10.55;100.00
18813;BME280;9534;51.140;6.296;2023-04-24T11:19:38;99701.31;;;10.26;100.00
18813;BME280;9534;51.140;6.296;2023-04-24T11:23:41;99664.56;;;10.22;100.00
18813;BME280;9534;51.140;6.296;2023-04-24T11:27:44;99681.97;;;10.68;100.00
18813;BME280;9534;51.140;6.296;2023-04-24T11:31:49;99671.31;;;11.01;100.00
18813;BME280;9534;51.140;6.296;2023-04-24T11:35:53;99696.66;;;10.97;100.00
18813;BME280;9534;51.140;6.296;2023-04-24T11:39:57;99680.25;;;10.97;100.00
18813;BME280;9534;51.140;6.296;2023-04-24T11:44:02;99689.44;;;11.13;100.00
18813;BME280;9534;51.140;6.296;2023-04-24T11:48:07;99683.59;;;11.33;100.00
18813;BME280;9534;51.140;6.296;2023-04-24T11:52:10;99712.34;;;12.04;100.00
18813;BME280;9534;51.140;6.296;2023-04-24T11:56:16;99715.97;;;12.72;100.00
18813;BME280;9534;51.140;6.296;2023-04-24T12:00:21;99716.81;;;12.33;100.00
18813;BME280;9534;51.140;6.296;2023-04-24T12:04:26;99711.72;;;11.74;100.00
18813;BME280;9534;51.140;6.296;2023-04-24T12:08:29;99729.53;;;12.11;100.00
18813;BME280;9534;51.140;6.296;2023-04-24T12:12:33;99713.03;;;12.62;100.00
18813;BME280;9534;51.140;6.296;2023-04-24T12:16:36;99741.19;;;13.62;100.00
18813;BME280;9534;51.140;6.296;2023-04-24T12:20:40;99730.00;;;13.36;100.00
18813;BME280;9534;51.140;6.296;2023-04-24T12:24:56;99745.91;;;11.83;100.00
18813;BME280;9534;51.140;6.296;2023-04-24T12:29:01;99747.66;;;11.43;100.00
18813;BME280;9534;51.140;6.296;2023-04-24T12:33:04;99744.78;;;11.38;100.00
18813;BME280;9534;51.140;6.296;2023-04-24T12:37:10;99744.22;;;11.59;100.00
18813;BME280;9534;51.140;6.296;2023-04-24T12:41:14;99752.66;;;11.46;100.00
18813;BME280;9534;51.140;6.296;2023-04-24T12:45:17;99754.38;;;11.93;100.00
18813;BME280;9534;51.140;6.296;2023-04-24T12:49:21;99771.94;;;12.71;100.00
18813;BME280;9534;51.140;6.296;2023-04-24T12:53:25;99728.97;;;12.37;100.00
18813;BME280;9534;51.140;6.296;2023-04-24T12:57:30;99768.06;;;11.82;100.00
18813;BME280;9534;51.140;6.296;2023-04-24T13:01:33;99772.81;;;12.21;100.00
18813;BME280;9534;51.140;6.296;2023-04-24T13:05:36;99781.41;;;12.13;100.00
18813;BME280;9534;51.140;6.296;2023-04-24T13:09:40;99778.28;;;12.09;100.00
18813;BME280;9534;51.140;6.296;2023-04-24T13:13:43;99780.78;;;12.22;100.00
18813;BME280;9534;51.140;6.296;2023-04-24T13:17:46;99795.94;;;12.13;100.00
18813;BME280;9534;51.140;6.296;2023-04-24T13:21:49;99794.13;;;11.61;100.00
18813;BME280;9534;51.140;6.296;2023-04-24T13:25:54;99791.88;;;11.47;100.00
18813;BME280;9534;51.140;6.296;2023-04-24T13:29:59;99794.44;;;11.19;100.00
18813;BME280;9534;51.140;6.296;2023-04-24T13:34:02;99799.13;;;11.41;100.00
18813;BME280;9534;51.140;6.296;2023-04-24T13:38:05;99791.75;;;11.53;100.00
18813;BME280;9534;51.140;6.296;2023-04-24T13:42:11;99792.19;;;11.27;100.00
18813;BME280;9534;51.140;6.296;2023-04-24T13:46:15;99807.00;;;11.49;100.00
18813;BME280;9534;51.140;6.296;2023-04-24T13:50:19;99809.53;;;11.21;100.00
18813;BME280;9534;51.140;6.296;2023-04-24T13:54:22;99810.63;;;11.20;100.00
18813;BME280;9534;51.140;6.296;2023-04-24T13:58:29;99785.91;;;11.50;100.00
18813;BME280;9534;51.140;6.296;2023-04-24T14:02:32;99798.22;;;11.70;100.00
18813;BME280;9534;51.140;6.296;2023-04-24T14:06:35;99809.09;;;11.88;100.00
18813;BME280;9534;51.140;6.296;2023-04-24T14:10:38;99805.94;;;12.98;100.00
18813;BME280;9534;51.140;6.296;2023-04-24T14:14:42;99806.09;;;13.63;100.00
18813;BME280;9534;51.140;6.296;2023-04-24T14:18:45;99806.34;;;12.90;100.00
18813;BME280;9534;51.140;6.296;2023-04-24T14:22:48;99810.97;;;12.73;100.00
18813;BME280;9534;51.140;6.296;2023-04-24T14:26:51;99796.16;;;12.74;100.00
18813;BME280;9534;51.140;6.296;2023-04-24T14:30:56;99786.25;;;12.73;100.00
18813;BME280;9534;51.140;6.296;2023-04-24T14:34:59;99795.53;;;12.44;100.00
18813;BME280;9534;51.140;6.296;2023-04-24T14:39:02;99813.09;;;12.99;100.00
18813;BME280;9534;51.140;6.296;2023-04-24T14:43:08;99788.66;;;13.58;100.00
18813;BME280;9534;51.140;6.296;2023-04-24T14:47:13;99789.28;;;14.52;100.00
18813;BME280;9534;51.140;6.296;2023-04-24T14:51:16;99793.06;;;14.46;100.00
18813;BME280;9534;51.140;6.296;2023-04-24T14:55:19;99808.75;;;13.58;100.00
18813;BME280;9534;51.140;6.296;2023-04-24T14:59:22;99810.44;;;14.30;100.00
18813;BME280;9534;51.140;6.296;2023-04-24T15:03:27;99820.16;;;14.00;100.00
18813;BME280;9534;51.140;6.296;2023-04-24T15:07:31;99810.00;;;13.07;100.00
18813;BME280;9534;51.140;6.296;2023-04-24T15:11:34;99814.34;;;12.52;100.00
18813;BME280;9534;51.140;6.296;2023-04-24T15:15:37;99813.72;;;12.73;100.00
18813;BME280;9534;51.140;6.296;2023-04-24T15:19:42;99812.09;;;12.49;100.00
18813;BME280;9534;51.140;6.296;2023-04-24T15:23:44;99797.81;;;12.75;100.00
18813;BME280;9534;51.140;6.296;2023-04-24T15:27:48;99798.63;;;13.80;100.00
18813;BME280;9534;51.140;6.296;2023-04-24T15:31:51;99807.44;;;13.17;100.00
18813;BME280;9534;51.140;6.296;2023-04-24T15:35:55;99822.44;;;12.70;100.00
18813;BME280;9534;51.140;6.296;2023-04-24T15:39:58;99815.38;;;12.62;100.00
18813;BME280;9534;51.140;6.296;2023-04-24T15:44:02;99827.91;;;12.70;100.00
18813;BME280;9534;51.140;6.296;2023-04-24T15:48:05;99825.28;;;13.03;100.00
18813;BME280;9534;51.140;6.296;2023-04-24T15:52:09;99831.63;;;12.92;100.00
18813;BME280;9534;51.140;6.296;2023-04-24T15:56:12;99822.97;;;12.83;100.00
18813;BME280;9534;51.140;6.296;2023-04-24T16:00:16;99829.47;;;13.50;100.00
18813;BME280;9534;51.140;6.296;2023-04-24T16:04:19;99825.16;;;12.98;100.00
18813;BME280;9534;51.140;6.296;2023-04-24T16:08:24;99828.13;;;12.29;100.00
18813;BME280;9534;51.140;6.296;2023-04-24T16:12:27;99818.34;;;12.22;100.00
18813;BME280;9534;51.140;6.296;2023-04-24T16:16:30;99822.75;;;12.11;100.00
18813;BME280;9534;51.140;6.296;2023-04-24T16:20:33;99822.31;;;11.91;100.00
18813;BME280;9534;51.140;6.296;2023-04-24T16:24:37;99830.63;;;12.19;100.00
18813;BME280;9534;51.140;6.296;2023-04-24T16:28:40;99828.16;;;11.83;100.00
18813;BME280;9534;51.140;6.296;2023-04-24T16:32:44;99826.81;;;12.20;100.00
18813;BME280;9534;51.140;6.296;2023-04-24T16:36:47;99830.56;;;12.53;100.00
18813;BME280;9534;51.140;6.296;2023-04-24T16:40:51;99826.91;;;12.48;100.00
18813;BME280;9534;51.140;6.296;2023-04-24T16:44:54;99835.28;;;12.81;100.00
18813;BME280;9534;51.140;6.296;2023-04-24T16:48:57;99836.94;;;12.31;100.00
18813;BME280;9534;51.140;6.296;2023-04-24T16:53:00;99841.59;;;12.19;100.00
18813;BME280;9534;51.140;6.296;2023-04-24T16:57:05;99844.47;;;12.01;100.00
18813;BME280;9534;51.140;6.296;2023-04-24T17:01:09;99848.22;;;11.54;100.00
18813;BME280;9534;51.140;6.296;2023-04-24T17:05:12;99841.25;;;11.81;100.00
18813;BME280;9534;51.140;6.296;2023-04-24T17:09:15;99847.00;;;11.50;100.00
18813;BME280;9534;51.140;6.296;2023-04-24T17:13:19;99842.41;;;11.21;100.00
18813;BME280;9534;51.140;6.296;2023-04-24T17:17:22;99853.75;;;10.96;100.00
18813;BME280;9534;51.140;6.296;2023-04-24T17:21:26;99851.63;;;10.98;100.00
18813;BME280;9534;51.140;6.296;2023-04-24T17:25:29;99854.81;;;10.95;100.00
18813;BME280;9534;51.140;6.296;2023-04-24T17:29:33;99850.53;;;11.28;100.00
18813;BME280;9534;51.140;6.296;2023-04-24T17:33:36;99859.84;;;11.79;100.00
18813;BME280;9534;51.140;6.296;2023-04-24T17:37:39;99858.66;;;11.87;100.00
18813;BME280;9534;51.140;6.296;2023-04-24T17:41:42;99860.69;;;11.39;100.00
18813;BME280;9534;51.140;6.296;2023-04-24T17:45:47;99862.91;;;10.72;100.00
18813;BME280;9534;51.140;6.296;2023-04-24T17:49:50;99864.00;;;10.53;100.00
18813;BME280;9534;51.140;6.296;2023-04-24T17:53:53;99869.31;;;10.66;100.00
18813;BME280;9534;51.140;6.296;2023-04-24T17:57:56;99875.84;;;10.47;100.00
18813;BME280;9534;51.140;6.296;2023-04-24T18:02:01;99877.97;;;10.45;100.00
18813;BME280;9534;51.140;6.296;2023-04-24T18:06:04;99866.19;;;10.26;100.00
18813;BME280;9534;51.140;6.296;2023-04-24T18:10:08;99871.44;;;10.28;100.00
18813;BME280;9534;51.140;6.296;2023-04-24T18:14:11;99880.41;;;10.17;100.00
18813;BME280;9534;51.140;6.296;2023-04-24T18:18:15;99892.88;;;9.82;100.00
18813;BME280;9534;51.140;6.296;2023-04-24T18:22:18;99898.78;;;9.79;100.00
18813;BME280;9534;51.140;6.296;2023-04-24T18:26:21;99905.50;;;9.83;100.00
18813;BME280;9534;51.140;6.296;2023-04-24T18:30:24;99905.50;;;9.83;100.00
18813;BME280;9534;51.140;6.296;2023-04-24T18:34:33;99905.22;;;9.67;100.00
18813;BME280;9534;51.140;6.296;2023-04-24T18:38:36;99904.25;;;9.55;100.00
18813;BME280;9534;51.140;6.296;2023-04-24T18:42:39;99910.88;;;9.41;100.00
18813;BME280;9534;51.140;6.296;2023-04-24T18:46:42;99915.16;;;9.24;100.00
18813;BME280;9534;51.140;6.296;2023-04-24T18:50:46;99906.84;;;9.12;100.00
18813;BME280;9534;51.140;6.296;2023-04-24T18:54:49;99903.97;;;9.01;100.00
18813;BME280;9534;51.140;6.296;2023-04-24T18:58:53;99917.69;;;8.81;100.00
18813;BME280;9534;51.140;6.296;2023-04-24T19:02:56;99928.47;;;8.63;100.00
18813;BME280;9534;51.140;6.296;2023-04-24T19:07:04;99933.13;;;8.57;100.00
18813;BME280;9534;51.140;6.296;2023-04-24T19:11:08;99948.25;;;8.53;100.00
18813;BME280;9534;51.140;6.296;2023-04-24T19:15:12;99944.44;;;8.60;100.00
18813;BME280;9534;51.140;6.296;2023-04-24T19:19:15;99949.50;;;8.57;100.00
18813;BME280;9534;51.140;6.296;2023-04-24T19:23:20;99957.47;;;8.52;100.00
18813;BME280;9534;51.140;6.296;2023-04-24T19:27:23;99968.81;;;8.49;100.00
18813;BME280;9534;51.140;6.296;2023-04-24T19:31:26;99969.66;;;8.43;100.00
18813;BME280;9534;51.140;6.296;2023-04-24T19:35:29;99974.28;;;8.36;100.00
18813;BME280;9534;51.140;6.296;2023-04-24T19:39:34;99985.56;;;8.20;100.00
18813;BME280;9534;51.140;6.296;2023-04-24T19:43:37;99992.72;;;8.14;100.00
18813;BME280;9534;51.140;6.296;2023-04-24T19:47:40;99986.84;;;7.98;100.00
18813;BME280;9534;51.140;6.296;2023-04-24T19:51:44;99992.69;;;7.95;100.00
18813;BME280;9534;51.140;6.296;2023-04-24T19:55:49;99993.13;;;7.92;100.00
18813;BME280;9534;51.140;6.296;2023-04-24T19:59:55;100000.25;;;7.86;100.00
18813;BME280;9534;51.140;6.296;2023-04-24T20:03:58;100005.25;;;7.83;100.00
18813;BME280;9534;51.140;6.296;2023-04-24T20:08:04;99998.75;;;7.84;100.00
18813;BME280;9534;51.140;6.296;2023-04-24T20:12:08;99992.06;;;7.73;100.00
18813;BME280;9534;51.140;6.296;2023-04-24T20:16:11;99999.78;;;7.63;100.00
18813;BME280;9534;51.140;6.296;2023-04-24T20:20:15;100000.44;;;7.59;100.00
18813;BME280;9534;51.140;6.296;2023-04-24T20:24:18;100005.25;;;7.57;100.00
18813;BME280;9534;51.140;6.296;2023-04-24T20:28:22;99999.78;;;7.57;100.00
18813;BME280;9534;51.140;6.296;2023-04-24T20:32:25;99993.91;;;7.47;100.00
18813;BME280;9534;51.140;6.296;2023-04-24T20:36:28;99996.00;;;7.45;100.00
18813;BME280;9534;51.140;6.296;2023-04-24T20:40:31;99996.19;;;7.43;100.00
18813;BME280;9534;51.140;6.296;2023-04-24T20:44:37;99994.31;;;7.44;100.00
18813;BME280;9534;51.140;6.296;2023-04-24T20:48:40;99996.81;;;7.39;100.00
18813;BME280;9534;51.140;6.296;2023-04-24T20:52:43;100009.34;;;7.33;100.00
18813;BME280;9534;51.140;6.296;2023-04-24T20:56:46;100003.66;;;7.22;100.00
18813;BME280;9534;51.140;6.296;2023-04-24T21:00:51;100003.78;;;7.01;100.00
18813;BME280;9534;51.140;6.296;2023-04-24T21:04:54;99998.72;;;6.92;100.00
18813;BME280;9534;51.140;6.296;2023-04-24T21:08:57;100011.47;;;6.91;100.00
18813;BME280;9534;51.140;6.296;2023-04-24T21:13:00;100014.41;;;6.83;100.00
18813;BME280;9534;51.140;6.296;2023-04-24T21:17:04;100019.19;;;6.81;100.00
18813;BME280;9534;51.140;6.296;2023-04-24T21:21:07;100021.28;;;6.79;100.00
18813;BME280;9534;51.140;6.296;2023-04-24T21:25:10;100016.81;;;6.72;100.00
18813;BME280;9534;51.140;6.296;2023-04-24T21:29:13;100018.81;;;6.57;100.00
18813;BME280;9534;51.140;6.296;2023-04-24T21:33:18;100018.56;;;6.45;100.00
18813;BME280;9534;51.140;6.296;2023-04-24T21:37:21;100013.66;;;6.34;100.00
18813;BME280;9534;51.140;6.296;2023-04-24T21:41:24;100019.34;;;6.39;100.00
18813;BME280;9534;51.140;6.296;2023-04-24T21:45:28;100030.31;;;6.52;100.00